sensor_id;sensor_type;location;lat;lon;timestamp;temperature;humidity
51035;DHT22;37062;52.546;13.230;2023-10-09T00:00:08;14.80;99.90
51035;DHT22;37062;52.546;13.230;2023-10-09T00:02:54;14.80;99.90
51035;DHT22;37062;52.546;13.230;2023-10-09T00:05:22;14.80;99.90
51035;DHT22;37062;52.546;13.230;2023-10-09T00:08:04;14.80;99.90
51035;DHT22;37062;52.546;13.230;2023-10-09T00:10:35;14.80;99.90
51035;DHT22;37062;52.546;13.230;2023-10-09T00:13:15;14.80;99.90
51035;DHT22;37062;52.546;13.230;2023-10-09T00:15:45;14.70;99.90
51035;DHT22;37062;52.546;13.230;2023-10-09T00:18:21;14.70;99.90
51035;DHT22;37062;52.546;13.230;2023-10-09T00:20:56;14.60;99.90
51035;DHT22;37062;52.546;13.230;2023-10-09T00:23:38;14.60;99.90
51035;DHT22;37062;52.546;13.230;2023-10-09T00:26:07;14.50;99.90
51035;DHT22;37062;52.546;13.230;2023-10-09T00:28:50;14.40;99.90
51035;DHT22;37062;52.546;13.230;2023-10-09T00:31:19;14.40;99.90
51035;DHT22;37062;52.546;13.230;2023-10-09T00:33:59;14.40;99.90
51035;DHT22;37062;52.546;13.230;2023-10-09T00:36:46;14.40;99.90
51035;DHT22;37062;52.546;13.230;2023-10-09T00:39:21;14.40;99.90
51035;DHT22;37062;52.546;13.230;2023-10-09T00:42:08;14.30;99.90
51035;DHT22;37062;52.546;13.230;2023-10-09T00:44:41;14.30;99.90
51035;DHT22;37062;52.546;13.230;2023-10-09T00:47:12;14.20;99.90
51035;DHT22;37062;52.546;13.230;2023-10-09T00:49:59;14.20;99.90
51035;DHT22;37062;52.546;13.230;2023-10-09T00:52:30;14.20;99.90
51035;DHT22;37062;52.546;13.230;2023-10-09T00:55:05;14.10;99.90
51035;DHT22;37062;52.546;13.230;2023-10-09T00:57:44;14.10;99.90
51035;DHT22;37062;52.546;13.230;2023-10-09T01:00:17;14.00;99.90
51035;DHT22;37062;52.546;13.230;2023-10-09T01:03:01;14.10;99.90
51035;DHT22;37062;52.546;13.230;2023-10-09T01:05:49;14.00;99.90
51035;DHT22;37062;52.546;13.230;2023-10-09T01:08:25;13.90;99.90
51035;DHT22;37062;52.546;13.230;2023-10-09T01:10:57;13.70;99.90
51035;DHT22;37062;52.546;13.230;2023-10-09T01:13:38;13.70;99.90
51035;DHT22;37062;52.546;13.230;2023-10-09T01:16:21;13.70;99.90
51035;DHT22;37062;52.546;13.230;2023-10-09T01:18:52;13.70;99.90
51035;DHT22;37062;52.546;13.230;2023-10-09T01:21:22;13.70;99.90
51035;DHT22;37062;52.546;13.230;2023-10-09T01:23:55;13.70;99.90
51035;DHT22;37062;52.546;13.230;2023-10-09T01:26:32;13.70;99.90
51035;DHT22;37062;52.546;13.230;2023-10-09T01:29:07;13.80;99.90
51035;DHT22;37062;52.546;13.230;2023-10-09T01:31:37;13.80;99.90
51035;DHT22;37062;52.546;13.230;2023-10-09T01:34:11;13.80;99.90
51035;DHT22;37062;52.546;13.230;2023-10-09T01:36:41;13.70;99.90
51035;DHT22;37062;52.546;13.230;2023-10-09T01:39:11;13.50;99.90
51035;DHT22;37062;52.546;13.230;2023-10-09T01:41:50;13.40;99.90
51035;DHT22;37062;52.546;13.230;2023-10-09T01:44:26;13.20;99.90
51035;DHT22;37062;52.546;13.230;2023-10-09T01:46:57;13.10;99.90
51035;DHT22;37062;52.546;13.230;2023-10-09T01:49:26;13.00;99.90
51035;DHT22;37062;52.546;13.230;2023-10-09T01:51:59;13.10;99.90
51035;DHT22;37062;52.546;13.230;2023-10-09T01:54:35;13.30;99.90
51035;DHT22;37062;52.546;13.230;2023-10-09T01:57:08;13.40;99.90
51035;DHT22;37062;52.546;13.230;2023-10-09T01:59:40;13.50;99.90
51035;DHT22;37062;52.546;13.230;2023-10-09T02:02:11;13.70;99.90
51035;DHT22;37062;52.546;13.230;2023-10-09T02:04:56;13.80;99.90
51035;DHT22;37062;52.546;13.230;2023-10-09T02:07:34;13.90;99.90
51035;DHT22;37062;52.546;13.230;2023-10-09T02:10:11;13.90;99.90
51035;DHT22;37062;52.546;13.230;2023-10-09T02:12:49;13.90;99.90
51035;DHT22;37062;52.546;13.230;2023-10-09T02:15:25;13.90;99.90
51035;DHT22;37062;52.546;13.230;2023-10-09T02:18:20;13.90;99.90
51035;DHT22;37062;52.546;13.230;2023-10-09T02:21:07;14.00;99.90
51035;DHT22;37062;52.546;13.230;2023-10-09T02:23:42;14.00;99.90
51035;DHT22;37062;52.546;13.230;2023-10-09T02:26:18;13.90;99.90
51035;DHT22;37062;52.546;13.230;2023-10-09T02:28:52;13.90;99.90
51035;DHT22;37062;52.546;13.230;2023-10-09T02:31:27;14.00;99.90
51035;DHT22;37062;52.546;13.230;2023-10-09T02:34:04;14.00;99.90
51035;DHT22;37062;52.546;13.230;2023-10-09T02:36:34;14.00;99.90
51035;DHT22;37062;52.546;13.230;2023-10-09T02:39:05;14.00;99.90
51035;DHT22;37062;52.546;13.230;2023-10-09T02:41:34;14.00;99.90
51035;DHT22;37062;52.546;13.230;2023-10-09T02:44:16;14.00;99.90
51035;DHT22;37062;52.546;13.230;2023-10-09T02:46:51;13.90;99.90
51035;DHT22;37062;52.546;13.230;2023-10-09T02:49:26;13.90;99.90
51035;DHT22;37062;52.546;13.230;2023-10-09T02:51:55;13.80;99.90
51035;DHT22;37062;52.546;13.230;2023-10-09T02:54:23;13.80;99.90
51035;DHT22;37062;52.546;13.230;2023-10-09T02:57:03;13.80;99.90
51035;DHT22;37062;52.546;13.230;2023-10-09T02:59:35;13.80;99.90
51035;DHT22;37062;52.546;13.230;2023-10-09T03:02:05;13.80;99.90
51035;DHT22;37062;52.546;13.230;2023-10-09T03:04:35;13.80;99.90
51035;DHT22;37062;52.546;13.230;2023-10-09T03:07:06;13.80;99.90
51035;DHT22;37062;52.546;13.230;2023-10-09T03:09:34;13.90;99.90
51035;DHT22;37062;52.546;13.230;2023-10-09T03:12:03;14.00;99.90
51035;DHT22;37062;52.546;13.230;2023-10-09T03:14:35;14.00;99.90
51035;DHT22;37062;52.546;13.230;2023-10-09T03:17:05;14.00;99.90
51035;DHT22;37062;52.546;13.230;2023-10-09T03:19:41;13.90;99.90
51035;DHT22;37062;52.546;13.230;2023-10-09T03:22:11;13.90;99.90
51035;DHT22;37062;52.546;13.230;2023-10-09T03:24:39;13.90;99.90
51035;DHT22;37062;52.546;13.230;2023-10-09T03:27:12;13.80;99.90
51035;DHT22;37062;52.546;13.230;2023-10-09T03:29:41;13.70;99.90
51035;DHT22;37062;52.546;13.230;2023-10-09T03:32:15;13.60;99.90
51035;DHT22;37062;52.546;13.230;2023-10-09T03:34:45;13.60;99.90
51035;DHT22;37062;52.546;13.230;2023-10-09T03:37:16;13.50;99.90
51035;DHT22;37062;52.546;13.230;2023-10-09T03:40:00;13.40;99.90
51035;DHT22;37062;52.546;13.230;2023-10-09T03:42:28;13.40;99.90
51035;DHT22;37062;52.546;13.230;2023-10-09T03:44:57;13.30;99.90
51035;DHT22;37062;52.546;13.230;2023-10-09T03:47:25;13.30;99.90
51035;DHT22;37062;52.546;13.230;2023-10-09T03:49:56;13.30;99.90
51035;DHT22;37062;52.546;13.230;2023-10-09T03:52:29;13.40;99.90
51035;DHT22;37062;52.546;13.230;2023-10-09T03:54:57;13.40;99.90
51035;DHT22;37062;52.546;13.230;2023-10-09T03:57:27;13.50;99.90
51035;DHT22;37062;52.546;13.230;2023-10-09T03:59:56;13.50;99.90
51035;DHT22;37062;52.546;13.230;2023-10-09T04:02:24;13.50;99.90
51035;DHT22;37062;52.546;13.230;2023-10-09T04:04:53;13.30;99.90
51035;DHT22;37062;52.546;13.230;2023-10-09T04:07:22;13.10;99.90
51035;DHT22;37062;52.546;13.230;2023-10-09T04:09:52;13.00;99.90
51035;DHT22;37062;52.546;13.230;2023-10-09T04:12:41;13.00;99.90
51035;DHT22;37062;52.546;13.230;2023-10-09T04:15:10;13.10;99.90
51035;DHT22;37062;52.546;13.230;2023-10-09T04:17:42;13.10;99.90
51035;DHT22;37062;52.546;13.230;2023-10-09T04:20:10;13.00;99.90
51035;DHT22;37062;52.546;13.230;2023-10-09T04:22:58;12.90;99.90
51035;DHT22;37062;52.546;13.230;2023-10-09T04:25:33;12.80;99.90
51035;DHT22;37062;52.546;13.230;2023-10-09T04:28:10;12.70;99.90
51035;DHT22;37062;52.546;13.230;2023-10-09T04:30:46;12.60;99.90
51035;DHT22;37062;52.546;13.230;2023-10-09T04:33:21;12.60;99.90
51035;DHT22;37062;52.546;13.230;2023-10-09T04:36:10;12.60;99.90
51035;DHT22;37062;52.546;13.230;2023-10-09T04:38:47;12.60;99.90
51035;DHT22;37062;52.546;13.230;2023-10-09T04:41:23;12.70;99.90
51035;DHT22;37062;52.546;13.230;2023-10-09T04:44:00;12.70;99.90
51035;DHT22;37062;52.546;13.230;2023-10-09T04:46:46;12.70;99.90
51035;DHT22;37062;52.546;13.230;2023-10-09T04:49:40;12.50;99.90
51035;DHT22;37062;52.546;13.230;2023-10-09T04:52:17;12.40;99.90
51035;DHT22;37062;52.546;13.230;2023-10-09T04:55:19;12.40;99.90
51035;DHT22;37062;52.546;13.230;2023-10-09T04:57:51;12.30;99.90
51035;DHT22;37062;52.546;13.230;2023-10-09T05:00:29;12.30;99.90
51035;DHT22;37062;52.546;13.230;2023-10-09T05:03:28;12.20;99.90
51035;DHT22;37062;52.546;13.230;2023-10-09T05:06:10;12.10;99.90
51035;DHT22;37062;52.546;13.230;2023-10-09T05:09:01;12.00;99.90
51035;DHT22;37062;52.546;13.230;2023-10-09T05:11:48;12.00;99.90
51035;DHT22;37062;52.546;13.230;2023-10-09T05:14:36;12.00;99.90
51035;DHT22;37062;52.546;13.230;2023-10-09T05:17:12;12.00;99.90
51035;DHT22;37062;52.546;13.230;2023-10-09T05:19:43;12.00;99.90
51035;DHT22;37062;52.546;13.230;2023-10-09T05:22:42;11.90;99.90
51035;DHT22;37062;52.546;13.230;2023-10-09T05:25:25;11.90;99.90
51035;DHT22;37062;52.546;13.230;2023-10-09T05:28:23;11.90;99.90
51035;DHT22;37062;52.546;13.230;2023-10-09T05:31:15;12.00;99.90
51035;DHT22;37062;52.546;13.230;2023-10-09T05:33:57;12.10;99.90
51035;DHT22;37062;52.546;13.230;2023-10-09T05:36:28;12.10;99.90
51035;DHT22;37062;52.546;13.230;2023-10-09T05:38:59;12.20;99.90
51035;DHT22;37062;52.546;13.230;2023-10-09T05:41:45;12.20;99.90
51035;DHT22;37062;52.546;13.230;2023-10-09T05:44:16;12.20;99.90
51035;DHT22;37062;52.546;13.230;2023-10-09T05:46:58;12.20;99.90
51035;DHT22;37062;52.546;13.230;2023-10-09T05:49:46;12.20;99.90
51035;DHT22;37062;52.546;13.230;2023-10-09T05:52:22;12.20;99.90
51035;DHT22;37062;52.546;13.230;2023-10-09T05:55:16;12.20;99.90
51035;DHT22;37062;52.546;13.230;2023-10-09T05:58:13;12.20;99.90
51035;DHT22;37062;52.546;13.230;2023-10-09T06:01:03;12.20;99.90
51035;DHT22;37062;52.546;13.230;2023-10-09T06:03:47;12.20;99.90
51035;DHT22;37062;52.546;13.230;2023-10-09T06:06:23;12.20;99.90
51035;DHT22;37062;52.546;13.230;2023-10-09T06:09:11;12.20;99.90
51035;DHT22;37062;52.546;13.230;2023-10-09T06:12:16;12.10;99.90
51035;DHT22;37062;52.546;13.230;2023-10-09T06:15:21;12.00;99.90
51035;DHT22;37062;52.546;13.230;2023-10-09T06:18:19;12.00;99.90
51035;DHT22;37062;52.546;13.230;2023-10-09T06:20:53;12.10;99.90
51035;DHT22;37062;52.546;13.230;2023-10-09T06:23:37;12.10;99.90
51035;DHT22;37062;52.546;13.230;2023-10-09T06:26:22;12.30;99.90
51035;DHT22;37062;52.546;13.230;2023-10-09T06:28:53;12.40;99.90
51035;DHT22;37062;52.546;13.230;2023-10-09T06:31:38;12.50;99.90
51035;DHT22;37062;52.546;13.230;2023-10-09T06:34:24;12.40;99.90
51035;DHT22;37062;52.546;13.230;2023-10-09T06:37:02;12.40;99.90
51035;DHT22;37062;52.546;13.230;2023-10-09T06:39:44;12.60;99.90
51035;DHT22;37062;52.546;13.230;2023-10-09T06:42:17;12.60;99.90
51035;DHT22;37062;52.546;13.230;2023-10-09T06:45:01;12.60;99.90
51035;DHT22;37062;52.546;13.230;2023-10-09T06:47:31;12.70;99.90
51035;DHT22;37062;52.546;13.230;2023-10-09T06:50:10;12.70;99.90
51035;DHT22;37062;52.546;13.230;2023-10-09T06:52:52;12.70;99.90
51035;DHT22;37062;52.546;13.230;2023-10-09T06:55:53;12.70;99.90
51035;DHT22;37062;52.546;13.230;2023-10-09T06:58:28;12.70;99.90
51035;DHT22;37062;52.546;13.230;2023-10-09T07:01:08;12.70;99.90
51035;DHT22;37062;52.546;13.230;2023-10-09T07:03:46;12.70;99.90
51035;DHT22;37062;52.546;13.230;2023-10-09T07:06:22;12.70;99.90
51035;DHT22;37062;52.546;13.230;2023-10-09T07:09:13;12.70;99.90
51035;DHT22;37062;52.546;13.230;2023-10-09T07:11:47;12.70;99.90
51035;DHT22;37062;52.546;13.230;2023-10-09T07:14:25;12.70;99.90
51035;DHT22;37062;52.546;13.230;2023-10-09T07:17:11;12.70;99.90
51035;DHT22;37062;52.546;13.230;2023-10-09T07:19:51;12.70;99.90
51035;DHT22;37062;52.546;13.230;2023-10-09T07:22:42;12.80;99.90
51035;DHT22;37062;52.546;13.230;2023-10-09T07:25:23;12.90;99.90
51035;DHT22;37062;52.546;13.230;2023-10-09T07:28:22;13.00;99.90
51035;DHT22;37062;52.546;13.230;2023-10-09T07:31:17;12.80;99.90
51035;DHT22;37062;52.546;13.230;2023-10-09T07:33:52;12.80;99.90
51035;DHT22;37062;52.546;13.230;2023-10-09T07:36:25;12.80;99.90
51035;DHT22;37062;52.546;13.230;2023-10-09T07:39:06;12.80;99.90
51035;DHT22;37062;52.546;13.230;2023-10-09T07:41:42;12.80;99.90
51035;DHT22;37062;52.546;13.230;2023-10-09T07:44:23;12.80;99.90
51035;DHT22;37062;52.546;13.230;2023-10-09T07:47:10;12.90;99.90
51035;DHT22;37062;52.546;13.230;2023-10-09T07:49:45;12.90;99.90
51035;DHT22;37062;52.546;13.230;2023-10-09T07:52:21;13.00;99.90
51035;DHT22;37062;52.546;13.230;2023-10-09T07:54:54;13.00;99.90
51035;DHT22;37062;52.546;13.230;2023-10-09T07:57:29;13.00;99.90
51035;DHT22;37062;52.546;13.230;2023-10-09T08:00:07;13.10;99.90
51035;DHT22;37062;52.546;13.230;2023-10-09T08:02:55;13.10;99.90
51035;DHT22;37062;52.546;13.230;2023-10-09T08:05:28;13.20;99.90
51035;DHT22;37062;52.546;13.230;2023-10-09T08:08:01;13.10;99.90
51035;DHT22;37062;52.546;13.230;2023-10-09T08:11:08;13.10;99.90
51035;DHT22;37062;52.546;13.230;2023-10-09T08:14:22;13.20;99.90
51035;DHT22;37062;52.546;13.230;2023-10-09T08:17:09;13.30;99.90
51035;DHT22;37062;52.546;13.230;2023-10-09T08:19:46;13.30;99.90
51035;DHT22;37062;52.546;13.230;2023-10-09T08:22:23;13.20;99.90
51035;DHT22;37062;52.546;13.230;2023-10-09T08:25:11;13.10;99.90
51035;DHT22;37062;52.546;13.230;2023-10-09T08:27:58;13.20;99.90
51035;DHT22;37062;52.546;13.230;2023-10-09T08:30:36;13.20;99.90
51035;DHT22;37062;52.546;13.230;2023-10-09T08:33:17;13.20;99.90
51035;DHT22;37062;52.546;13.230;2023-10-09T08:36:23;13.10;99.90
51035;DHT22;37062;52.546;13.230;2023-10-09T08:38:55;13.10;99.90
51035;DHT22;37062;52.546;13.230;2023-10-09T08:41:25;13.20;99.90
51035;DHT22;37062;52.546;13.230;2023-10-09T08:43:58;13.20;99.90
51035;DHT22;37062;52.546;13.230;2023-10-09T08:46:27;13.10;99.90
51035;DHT22;37062;52.546;13.230;2023-10-09T08:48:57;13.00;99.90
51035;DHT22;37062;52.546;13.230;2023-10-09T08:51:27;13.00;99.90
51035;DHT22;37062;52.546;13.230;2023-10-09T08:53:56;13.00;99.90
51035;DHT22;37062;52.546;13.230;2023-10-09T08:56:25;13.00;99.90
51035;DHT22;37062;52.546;13.230;2023-10-09T08:58:55;13.00;99.90
51035;DHT22;37062;52.546;13.230;2023-10-09T09:01:25;13.00;99.90
51035;DHT22;37062;52.546;13.230;2023-10-09T09:03:55;13.00;99.90
51035;DHT22;37062;52.546;13.230;2023-10-09T09:06:23;12.90;99.90
51035;DHT22;37062;52.546;13.230;2023-10-09T09:08:52;12.80;99.90
51035;DHT22;37062;52.546;13.230;2023-10-09T09:11:41;12.80;99.90
51035;DHT22;37062;52.546;13.230;2023-10-09T09:14:15;13.00;99.90
51035;DHT22;37062;52.546;13.230;2023-10-09T09:16:50;13.00;99.90
51035;DHT22;37062;52.546;13.230;2023-10-09T09:19:19;13.00;99.90
51035;DHT22;37062;52.546;13.230;2023-10-09T09:21:59;12.90;99.90
51035;DHT22;37062;52.546;13.230;2023-10-09T09:24:38;13.00;99.90
51035;DHT22;37062;52.546;13.230;2023-10-09T09:27:12;13.00;99.90
51035;DHT22;37062;52.546;13.230;2023-10-09T09:29:45;13.00;99.90
51035;DHT22;37062;52.546;13.230;2023-10-09T09:32:28;13.20;99.90
51035;DHT22;37062;52.546;13.230;2023-10-09T09:35:04;13.40;99.90
51035;DHT22;37062;52.546;13.230;2023-10-09T09:37:52;13.60;99.90
51035;DHT22;37062;52.546;13.230;2023-10-09T09:40:22;13.70;99.90
51035;DHT22;37062;52.546;13.230;2023-10-09T09:43:02;13.70;99.90
51035;DHT22;37062;52.546;13.230;2023-10-09T09:45:34;13.70;99.90
51035;DHT22;37062;52.546;13.230;2023-10-09T09:48:06;13.70;99.90
51035;DHT22;37062;52.546;13.230;2023-10-09T09:50:37;13.80;99.90
51035;DHT22;37062;52.546;13.230;2023-10-09T09:53:11;14.00;99.90
51035;DHT22;37062;52.546;13.230;2023-10-09T09:55:53;14.00;99.90
51035;DHT22;37062;52.546;13.230;2023-10-09T09:58:26;14.00;99.90
51035;DHT22;37062;52.546;13.230;2023-10-09T10:01:03;13.90;99.90
51035;DHT22;37062;52.546;13.230;2023-10-09T10:03:46;13.70;99.90
51035;DHT22;37062;52.546;13.230;2023-10-09T10:06:18;13.60;99.90
51035;DHT22;37062;52.546;13.230;2023-10-09T10:08:48;13.70;99.90
51035;DHT22;37062;52.546;13.230;2023-10-09T10:11:44;13.60;99.90
51035;DHT22;37062;52.546;13.230;2023-10-09T10:14:12;13.60;99.90
51035;DHT22;37062;52.546;13.230;2023-10-09T10:17:05;13.50;99.90
51035;DHT22;37062;52.546;13.230;2023-10-09T10:20:02;13.40;99.90
51035;DHT22;37062;52.546;13.230;2023-10-09T10:23:14;13.40;99.90
51035;DHT22;37062;52.546;13.230;2023-10-09T10:25:45;13.40;99.90
51035;DHT22;37062;52.546;13.230;2023-10-09T10:28:21;13.40;99.90
51035;DHT22;37062;52.546;13.230;2023-10-09T10:31:10;13.40;99.90
51035;DHT22;37062;52.546;13.230;2023-10-09T10:34:04;13.40;99.90
51035;DHT22;37062;52.546;13.230;2023-10-09T10:36:39;13.50;99.90
51035;DHT22;37062;52.546;13.230;2023-10-09T10:39:11;13.50;99.90
51035;DHT22;37062;52.546;13.230;2023-10-09T10:41:55;13.50;99.90
51035;DHT22;37062;52.546;13.230;2023-10-09T10:44:28;13.60;99.90
51035;DHT22;37062;52.546;13.230;2023-10-09T10:47:05;13.70;99.90
51035;DHT22;37062;52.546;13.230;2023-10-09T10:49:43;13.70;99.90
51035;DHT22;37062;52.546;13.230;2023-10-09T10:52:24;13.70;99.90
51035;DHT22;37062;52.546;13.230;2023-10-09T10:55:09;13.90;99.90
51035;DHT22;37062;52.546;13.230;2023-10-09T10:58:01;13.90;99.90
51035;DHT22;37062;52.546;13.230;2023-10-09T11:00:37;14.10;99.90
51035;DHT22;37062;52.546;13.230;2023-10-09T11:03:25;14.30;99.90
51035;DHT22;37062;52.546;13.230;2023-10-09T11:06:03;14.40;99.90
51035;DHT22;37062;52.546;13.230;2023-10-09T11:08:46;14.20;99.90
51035;DHT22;37062;52.546;13.230;2023-10-09T11:11:22;14.10;99.90
51035;DHT22;37062;52.546;13.230;2023-10-09T11:13:50;14.00;99.90
51035;DHT22;37062;52.546;13.230;2023-10-09T11:16:25;13.90;99.90
51035;DHT22;37062;52.546;13.230;2023-10-09T11:19:11;13.90;99.90
51035;DHT22;37062;52.546;13.230;2023-10-09T11:21:56;13.90;99.90
51035;DHT22;37062;52.546;13.230;2023-10-09T11:24:43;14.00;99.90
51035;DHT22;37062;52.546;13.230;2023-10-09T11:27:14;14.00;99.90
51035;DHT22;37062;52.546;13.230;2023-10-09T11:29:48;14.10;99.90
51035;DHT22;37062;52.546;13.230;2023-10-09T11:32:36;14.10;99.90
51035;DHT22;37062;52.546;13.230;2023-10-09T11:35:13;14.20;99.90
51035;DHT22;37062;52.546;13.230;2023-10-09T11:37:55;14.40;99.90
51035;DHT22;37062;52.546;13.230;2023-10-09T11:40:31;14.40;99.90
51035;DHT22;37062;52.546;13.230;2023-10-09T11:43:17;14.50;99.90
51035;DHT22;37062;52.546;13.230;2023-10-09T11:45:50;14.50;99.90
51035;DHT22;37062;52.546;13.230;2023-10-09T11:48:22;14.80;99.90
51035;DHT22;37062;52.546;13.230;2023-10-09T11:51:00;15.00;99.90
51035;DHT22;37062;52.546;13.230;2023-10-09T11:53:43;15.20;99.90
51035;DHT22;37062;52.546;13.230;2023-10-09T11:56:14;15.50;99.90
51035;DHT22;37062;52.546;13.230;2023-10-09T11:58:44;15.60;99.90
51035;DHT22;37062;52.546;13.230;2023-10-09T12:01:17;15.50;99.90
51035;DHT22;37062;52.546;13.230;2023-10-09T12:03:48;15.20;99.90
51035;DHT22;37062;52.546;13.230;2023-10-09T12:06:19;15.00;99.90
51035;DHT22;37062;52.546;13.230;2023-10-09T12:08:50;14.70;99.90
51035;DHT22;37062;52.546;13.230;2023-10-09T12:11:20;14.70;99.90
51035;DHT22;37062;52.546;13.230;2023-10-09T12:13:55;14.80;99.90
51035;DHT22;37062;52.546;13.230;2023-10-09T12:16:25;14.90;99.90
51035;DHT22;37062;52.546;13.230;2023-10-09T12:18:56;15.00;99.90
51035;DHT22;37062;52.546;13.230;2023-10-09T12:21:24;15.10;99.90
51035;DHT22;37062;52.546;13.230;2023-10-09T12:23:55;15.30;99.90
51035;DHT22;37062;52.546;13.230;2023-10-09T12:26:30;15.30;99.90
51035;DHT22;37062;52.546;13.230;2023-10-09T12:29:02;15.40;99.90
51035;DHT22;37062;52.546;13.230;2023-10-09T12:31:37;15.60;99.90
51035;DHT22;37062;52.546;13.230;2023-10-09T12:34:06;15.60;99.90
51035;DHT22;37062;52.546;13.230;2023-10-09T12:36:35;15.80;99.90
51035;DHT22;37062;52.546;13.230;2023-10-09T12:39:04;15.80;99.90
51035;DHT22;37062;52.546;13.230;2023-10-09T12:41:35;15.90;99.90
51035;DHT22;37062;52.546;13.230;2023-10-09T12:44:08;15.90;99.90
51035;DHT22;37062;52.546;13.230;2023-10-09T12:46:42;15.60;99.90
51035;DHT22;37062;52.546;13.230;2023-10-09T12:49:20;15.40;99.90
51035;DHT22;37062;52.546;13.230;2023-10-09T12:51:52;15.50;99.90
51035;DHT22;37062;52.546;13.230;2023-10-09T12:54:20;15.50;99.90
51035;DHT22;37062;52.546;13.230;2023-10-09T12:56:55;15.60;99.90
51035;DHT22;37062;52.546;13.230;2023-10-09T12:59:25;15.70;99.90
51035;DHT22;37062;52.546;13.230;2023-10-09T13:01:53;15.80;99.90
51035;DHT22;37062;52.546;13.230;2023-10-09T13:04:25;15.80;99.90
51035;DHT22;37062;52.546;13.230;2023-10-09T13:06:59;15.70;99.90
51035;DHT22;37062;52.546;13.230;2023-10-09T13:09:30;15.70;99.90
51035;DHT22;37062;52.546;13.230;2023-10-09T13:12:04;15.70;99.90
51035;DHT22;37062;52.546;13.230;2023-10-09T13:14:36;15.80;99.90
51035;DHT22;37062;52.546;13.230;2023-10-09T13:17:04;15.90;99.90
51035;DHT22;37062;52.546;13.230;2023-10-09T13:19:37;15.80;99.90
51035;DHT22;37062;52.546;13.230;2023-10-09T13:22:06;15.60;99.90
51035;DHT22;37062;52.546;13.230;2023-10-09T13:24:40;15.40;99.90
51035;DHT22;37062;52.546;13.230;2023-10-09T13:27:10;15.50;99.90
51035;DHT22;37062;52.546;13.230;2023-10-09T13:29:40;15.60;99.90
51035;DHT22;37062;52.546;13.230;2023-10-09T13:32:08;15.70;99.90
51035;DHT22;37062;52.546;13.230;2023-10-09T13:34:42;15.80;99.90
51035;DHT22;37062;52.546;13.230;2023-10-09T13:37:12;15.80;99.90
51035;DHT22;37062;52.546;13.230;2023-10-09T13:39:46;15.90;99.90
51035;DHT22;37062;52.546;13.230;2023-10-09T13:42:21;16.00;99.90
51035;DHT22;37062;52.546;13.230;2023-10-09T13:44:52;16.00;99.90
51035;DHT22;37062;52.546;13.230;2023-10-09T13:47:22;15.80;99.90
51035;DHT22;37062;52.546;13.230;2023-10-09T13:49:59;15.80;99.90
51035;DHT22;37062;52.546;13.230;2023-10-09T13:52:27;15.70;99.90
51035;DHT22;37062;52.546;13.230;2023-10-09T13:54:57;15.50;99.90
51035;DHT22;37062;52.546;13.230;2023-10-09T13:57:43;15.30;99.90
51035;DHT22;37062;52.546;13.230;2023-10-09T14:00:13;15.20;99.90
51035;DHT22;37062;52.546;13.230;2023-10-09T14:02:45;15.10;99.90
51035;DHT22;37062;52.546;13.230;2023-10-09T14:05:14;15.10;99.90
51035;DHT22;37062;52.546;13.230;2023-10-09T14:07:42;15.10;99.90
51035;DHT22;37062;52.546;13.230;2023-10-09T14:10:10;15.00;99.90
51035;DHT22;37062;52.546;13.230;2023-10-09T14:12:46;15.00;99.90
51035;DHT22;37062;52.546;13.230;2023-10-09T14:15:20;15.10;99.90
51035;DHT22;37062;52.546;13.230;2023-10-09T14:17:49;15.20;99.90
51035;DHT22;37062;52.546;13.230;2023-10-09T14:20:23;15.30;99.90
51035;DHT22;37062;52.546;13.230;2023-10-09T14:22:59;15.40;99.90
51035;DHT22;37062;52.546;13.230;2023-10-09T14:25:33;15.50;99.90
51035;DHT22;37062;52.546;13.230;2023-10-09T14:28:06;15.50;99.90
51035;DHT22;37062;52.546;13.230;2023-10-09T14:30:35;15.60;99.90
51035;DHT22;37062;52.546;13.230;2023-10-09T14:33:09;15.60;99.90
51035;DHT22;37062;52.546;13.230;2023-10-09T14:35:40;15.60;99.90
51035;DHT22;37062;52.546;13.230;2023-10-09T14:38:09;15.70;99.90
51035;DHT22;37062;52.546;13.230;2023-10-09T14:40:43;15.80;99.90
51035;DHT22;37062;52.546;13.230;2023-10-09T14:43:13;15.80;99.90
51035;DHT22;37062;52.546;13.230;2023-10-09T14:45:46;15.80;99.90
51035;DHT22;37062;52.546;13.230;2023-10-09T14:48:16;15.90;99.90
51035;DHT22;37062;52.546;13.230;2023-10-09T14:50:48;16.00;99.90
51035;DHT22;37062;52.546;13.230;2023-10-09T14:53:20;16.00;99.90
51035;DHT22;37062;52.546;13.230;2023-10-09T14:55:54;16.00;99.90
51035;DHT22;37062;52.546;13.230;2023-10-09T14:58:24;16.10;99.90
51035;DHT22;37062;52.546;13.230;2023-10-09T15:00:52;16.00;99.90
51035;DHT22;37062;52.546;13.230;2023-10-09T15:03:21;16.00;99.90
51035;DHT22;37062;52.546;13.230;2023-10-09T15:05:49;16.00;99.90
51035;DHT22;37062;52.546;13.230;2023-10-09T15:08:18;16.00;99.90
51035;DHT22;37062;52.546;13.230;2023-10-09T15:10:46;16.00;99.90
51035;DHT22;37062;52.546;13.230;2023-10-09T15:13:15;16.00;99.90
51035;DHT22;37062;52.546;13.230;2023-10-09T15:15:45;15.90;99.90
51035;DHT22;37062;52.546;13.230;2023-10-09T15:18:17;15.90;99.90
51035;DHT22;37062;52.546;13.230;2023-10-09T15:20:48;15.90;99.90
51035;DHT22;37062;52.546;13.230;2023-10-09T15:23:18;15.90;99.90
51035;DHT22;37062;52.546;13.230;2023-10-09T15:25:47;15.80;99.90
51035;DHT22;37062;52.546;13.230;2023-10-09T15:28:19;15.70;99.90
51035;DHT22;37062;52.546;13.230;2023-10-09T15:30:48;15.70;99.90
51035;DHT22;37062;52.546;13.230;2023-10-09T15:33:17;15.70;99.90
51035;DHT22;37062;52.546;13.230;2023-10-09T15:35:47;15.70;99.90
51035;DHT22;37062;52.546;13.230;2023-10-09T15:38:16;15.70;99.90
51035;DHT22;37062;52.546;13.230;2023-10-09T15:40:46;15.70;99.90
51035;DHT22;37062;52.546;13.230;2023-10-09T15:43:15;15.70;99.90
51035;DHT22;37062;52.546;13.230;2023-10-09T15:45:44;15.70;99.90
51035;DHT22;37062;52.546;13.230;2023-10-09T15:48:13;15.70;99.90
51035;DHT22;37062;52.546;13.230;2023-10-09T15:50:45;15.70;99.90
51035;DHT22;37062;52.546;13.230;2023-10-09T15:53:15;15.70;99.90
51035;DHT22;37062;52.546;13.230;2023-10-09T15:55:45;15.70;99.90
51035;DHT22;37062;52.546;13.230;2023-10-09T15:58:13;15.60;99.90
51035;DHT22;37062;52.546;13.230;2023-10-09T16:00:43;15.50;99.90
51035;DHT22;37062;52.546;13.230;2023-10-09T16:03:13;15.40;99.90
51035;DHT22;37062;52.546;13.230;2023-10-09T16:05:42;15.10;99.90
51035;DHT22;37062;52.546;13.230;2023-10-09T16:08:10;15.00;99.90
51035;DHT22;37062;52.546;13.230;2023-10-09T16:10:39;14.90;99.90